首页
METAR-TAF:

METAR-TAF

机场 :

安曼民航機場

安曼, 约旦

纬度: 31-59N, 经度: 035-59E, 海拔: 767米

当前天气观测

该预报发布于51分钟前的12:00 UTC
静风
温度 15°C
湿度 51%
气压 1017 hPa
能見度: 4000
散云层高于3000英尺

METAR: OJAM 171200Z 00000KT 4000 HZ SCT030 15/05 Q1017 NOSIG

时间: 14:51 (12:51 UTC)

预报

该预报发布于2小时和42分钟前的10:09 UTC
预报有效从17日的 12点(UTC)到 18日的 18点(UTC)
风速6节,风向东转东南
能見度: 5000
少量云层高于3000英尺
成为
从 18日的 08点(UTC)到 18日的 10点(UTC)
少量云层高于2000英尺
散云层高于2500英尺
几率 40% :
短暂存在
从 18日的 10点(UTC)到 18日的 22点(UTC)
风速18节,风向东转东南
能見度: 2000
高吹尘
几率 40% :
短暂存在
从 18日的 12点(UTC)到 18日的 18点(UTC)
能見度: 3000
少量云层高于2000英尺, 塔状积云.
散云层高于3000英尺

TAF: OJAM 171009Z 1712/1818 12006KT 5000 HZ FEW030 BECMG 1808/1810 FEW020 SCT025 PROB40 TEMPO 1810/1822 11018KT 2000 BLDU PROB40 TEMPO 1812/1818 3000 RA FEW020TCU SCT030

超过4000个机场的气象观测和天气预报(METAR&TAF报告)。

可查询的气象台以黄色和红色小点在地图上表示。

将鼠标移到小点上方,可查看气象台名称。

然后点击查看天气观测和预报。

如需切换地图:点击带黑十字的绿色按钮放大地图;点击带横线的绿色按钮缩小地图;或者点击绿色箭头查看邻近地区的地图。


METAR-TAF: